Time;durP1;ratioP1;P1;durP2;ratioP2;P2;SDS_P1;SDS_P2;PMS_P1;PMS_P2;Temp;Humidity;BMP_temperature;BMP_pressure;BME280_temperature;BME280_humidity;BME280_pressure;Samples;Min_cycle;Max_cycle;Signal;HPM_P1;HPM_P2
2021/01/16 05:48:40;;;;;;;23.53;8.10;;;;;;;-15.31;73.35;98348.78;1627554;87;21641;-56
2021/01/16 05:51:09;;;;;;;21.13;8.27;;;;;;;-15.34;73.81;98366.17;1635571;87;21233;-53
2021/01/16 05:53:38;;;;;;;24.03;8.17;;;;;;;-15.38;74.14;98363.37;1639499;87;21217;-57
2021/01/16 05:56:08;;;;;;;26.67;9.47;;;;;;;-15.41;74.42;98364.77;1582788;89;21190;-51
2021/01/16 05:58:38;;;;;;;24.03;7.80;;;;;;;-15.43;74.73;98369.48;1563875;90;21230;-57
2021/01/16 06:01:08;;;;;;;18.97;7.70;;;;;;;-15.41;74.86;98369.00;1559314;89;21331;-56
2021/01/16 06:03:38;;;;;;;21.05;7.80;;;;;;;-15.41;74.91;98369.82;1579147;89;21226;-54
2021/01/16 06:06:13;;;;;;;24.07;8.58;;;;;;;-15.41;74.81;98372.80;1590018;88;21173;-52
2021/01/16 06:08:51;;;;;;;24.47;9.40;;;;;;;-15.45;74.71;98383.89;1619842;87;21189;-57
2021/01/16 06:11:22;;;;;;;21.63;8.13;;;;;;;-15.51;74.89;98392.52;1639916;86;21161;-60
2021/01/16 06:13:55;;;;;;;27.30;8.63;;;;;;;-15.50;75.24;98384.50;1639824;87;21222;-56
2021/01/16 06:16:24;;;;;;;27.03;10.10;;;;;;;-15.49;75.17;98385.70;1618008;86;21346;-56
2021/01/16 06:18:56;;;;;;;24.93;8.30;;;;;;;-15.54;74.87;98400.20;1611717;88;21208;-59
2021/01/16 06:21:34;;;;;;;23.03;9.83;;;;;;;-15.60;74.60;98402.52;1588891;89;21313;-59
2021/01/16 06:24:03;;;;;;;;;;;;;;;-15.66;74.33;98416.67;1565667;90;21264;-54
2021/01/16 06:26:34;;;;;;;28.07;8.50;;;;;;;-15.71;74.19;98405.09;1591947;90;20217;-55
2021/01/16 06:29:03;;;;;;;22.47;9.10;;;;;;;-15.73;73.97;98394.23;1567621;89;21790;-50
2021/01/16 06:31:34;;;;;;;23.17;7.70;;;;;;;-15.78;73.68;98418.39;1558000;90;21216;-50
2021/01/16 06:34:09;;;;;;;23.75;9.35;;;;;;;-15.81;73.42;98417.25;1616445;86;21184;-58
2021/01/16 06:36:38;;;;;;;25.23;8.80;;;;;;;-15.84;73.38;98419.43;1591588;89;21347;-61
2021/01/16 06:39:09;;;;;;;22.50;8.30;;;;;;;-15.85;73.41;98410.66;1573154;90;21767;-59
2021/01/16 06:41:40;;;;;;;18.97;7.20;;;;;;;-15.88;73.33;98420.89;1584069;88;21370;-54
2021/01/16 06:44:14;;;;;;;25.50;8.33;;;;;;;-15.88;73.35;98420.44;1565492;90;21240;-51
2021/01/16 06:46:48;;;;;;;22.50;8.83;;;;;;;-15.89;73.24;98413.72;1584187;88;21904;-51
2021/01/16 06:49:26;;;;;;;21.30;7.83;;;;;;;-15.89;73.39;98415.42;1597801;89;21396;-51
2021/01/16 06:51:59;;;;;;;24.93;8.23;;;;;;;-15.84;72.41;98414.38;1581374;88;21188;-53
2021/01/16 06:54:38;;;;;;;24.23;9.50;;;;;;;-15.87;72.47;98422.08;1605789;87;21184;-55
2021/01/16 06:57:12;;;;;;;22.80;8.83;;;;;;;-15.86;72.00;98434.27;1591266;89;21250;-51
2021/01/16 06:59:42;;;;;;;28.57;9.10;;;;;;;-15.87;71.94;98439.77;1593041;88;21204;-51
2021/01/16 07:02:36;;;;;;;24.20;9.50;;;;;;;-15.82;72.09;98437.08;1613557;87;21188;-53
2021/01/16 07:05:20;;;;;;;25.57;8.87;;;;;;;-15.74;71.99;98443.94;1620168;87;21620;-50
2021/01/16 07:07:54;;;;;;;24.60;7.93;;;;;;;-15.61;72.24;98445.54;1587080;89;21233;-50
2021/01/16 07:10:30;;;;;;;22.50;8.13;;;;;;;-15.46;71.80;98442.47;1614433;88;21286;-58
2021/01/16 07:13:01;;;;;;;26.27;9.37;;;;;;;-15.37;71.46;98450.12;1587745;89;21262;-49
2021/01/16 07:15:32;;;;;;;24.50;10.17;;;;;;;-15.26;70.58;98450.55;1594408;88;21156;-55
2021/01/16 07:18:04;;;;;;;21.60;8.40;;;;;;;-15.20;70.26;98442.73;1593494;90;21188;-54
2021/01/16 07:20:34;;;;;;;29.48;10.53;;;;;;;-15.12;69.74;98448.78;1585648;89;21226;-53
2021/01/16 07:23:05;;;;;;;29.10;12.50;;;;;;;-15.05;69.55;98453.98;1565794;88;22374;-50
2021/01/16 07:25:38;;;;;;;30.32;11.60;;;;;;;-14.89;69.62;98445.38;1595442;88;21190;-53
2021/01/16 07:28:09;;;;;;;24.07;9.13;;;;;;;-14.73;69.31;98459.07;1618739;87;21680;-56
2021/01/16 07:30:39;;;;;;;24.90;9.23;;;;;;;-14.59;68.19;98464.39;1634213;87;21233;-59
2021/01/16 07:33:10;;;;;;;24.20;9.33;;;;;;;-14.63;67.34;98457.80;1617256;87;21234;-52
2021/01/16 07:35:51;;;;;;;26.77;9.80;;;;;;;-14.62;66.67;98453.14;1610907;88;21653;-53
2021/01/16 07:38:21;;;;;;;26.37;9.80;;;;;;;-14.65;66.56;98462.55;1636963;88;21356;-49
2021/01/16 07:40:51;;;;;;;;;;;;;;;-14.70;65.93;98471.59;1626487;87;21560;-57
2021/01/16 07:43:38;;;;;;;24.90;9.60;;;;;;;-14.80;65.65;98467.31;1633386;87;20165;-54
2021/01/16 07:46:12;;;;;;;22.67;9.18;;;;;;;-14.96;65.12;98475.14;1602086;89;21209;-53
2021/01/16 07:48:49;;;;;;;26.33;10.03;;;;;;;-15.03;65.95;98487.62;1613962;87;21624;-51
2021/01/16 07:51:18;;;;;;;24.37;9.53;;;;;;;-14.93;65.69;98487.66;1630042;88;21347;-50
2021/01/16 07:53:47;;;;;;;21.10;8.73;;;;;;;-14.77;66.03;98489.98;1644855;86;21208;-54
2021/01/16 07:56:21;;;;;;;22.33;8.73;;;;;;;-14.66;65.22;98501.41;1665803;84;21144;-52
2021/01/16 07:59:19;;;;;;;27.70;9.67;;;;;;;-14.59;65.08;98500.27;1685462;84;21145;-52
2021/01/16 08:02:18;;;;;;;26.47;9.93;;;;;;;-14.55;64.83;98504.34;1617863;87;22292;-55
2021/01/16 08:05:19;;;;;;;21.50;8.38;;;;;;;-14.42;65.08;98510.97;1609287;86;21232;-54
2021/01/16 08:08:27;;;;;;;23.57;10.57;;;;;;;-14.31;64.42;98507.56;1672872;84;21809;-58
2021/01/16 08:11:01;;;;;;;24.07;9.10;;;;;;;-14.22;64.44;98508.02;1615940;87;21210;-59
2021/01/16 08:13:32;;;;;;;23.00;9.00;;;;;;;-14.10;64.25;98517.28;1637747;87;21212;-50
2021/01/16 08:16:03;;;;;;;25.70;9.25;;;;;;;-14.03;64.02;98517.40;1655825;85;21189;-61
2021/01/16 08:18:33;;;;;;;26.25;9.35;;;;;;;-13.96;63.54;98511.19;1683255;84;21208;-50
2021/01/16 08:21:11;;;;;;;24.00;9.37;;;;;;;-13.95;63.29;98513.64;1635903;86;21359;-59
2021/01/16 08:23:48;;;;;;;23.23;9.27;;;;;;;-13.96;63.25;98520.88;1574349;90;21675;-58
2021/01/16 08:26:21;;;;;;;30.93;11.53;;;;;;;-13.90;63.16;98515.17;1652594;85;21237;-49
2021/01/16 08:28:51;;;;;;;33.80;14.20;;;;;;;-13.84;63.07;98508.58;1614558;86;21224;-57
2021/01/16 08:31:30;;;;;;;29.43;12.40;;;;;;;-13.78;63.08;98507.87;1616210;86;21431;-52
2021/01/16 08:34:01;;;;;;;35.93;14.80;;;;;;;-13.68;63.15;98527.32;1657057;85;21241;-51
2021/01/16 08:36:31;;;;;;;31.70;13.17;;;;;;;-13.54;63.15;98522.47;1632534;87;21216;-54
2021/01/16 08:39:22;;;;;;;31.10;11.80;;;;;;;-13.33;63.17;98525.80;1630339;86;21939;-55
2021/01/16 08:42:06;;;;;;;25.73;10.47;;;;;;;-13.13;62.85;98528.27;1618168;86;21371;-58
2021/01/16 08:44:52;;;;;;;31.27;10.53;;;;;;;-12.99;62.35;98529.34;1639243;86;21200;-61
2021/01/16 08:47:23;;;;;;;27.90;10.93;;;;;;;-12.86;62.00;98522.81;1618842;88;21266;-49
2021/01/16 08:49:56;;;;;;;;;;;;;;;-12.74;61.38;98529.86;1620953;89;21382;-52
2021/01/16 08:52:33;;;;;;;23.55;9.48;;;;;;;-12.67;61.15;98522.78;1589493;89;20192;-51
2021/01/16 08:55:06;;;;;;;28.30;11.23;;;;;;;-12.64;60.72;98520.11;1617858;86;21354;-55
2021/01/16 08:57:37;;;;;;;28.20;11.00;;;;;;;-12.62;60.49;98524.21;1602581;89;21218;-56
2021/01/16 09:00:22;;;;;;;26.05;9.63;;;;;;;-12.51;60.42;98519.91;1618832;89;21314;-57
2021/01/16 09:06:02;;;;;;;30.33;10.83;;;;;;;-12.44;59.61;98520.02;1779940;79;23243;-58
2021/01/16 09:08:31;;;;;;;31.37;11.53;;;;;;;-12.43;59.66;98522.10;1752061;80;21208;-53
2021/01/16 09:11:12;;;;;;;26.97;10.63;;;;;;;-12.34;59.60;98521.64;1779543;80;21633;-55
2021/01/16 09:13:47;;;;;;;24.80;9.83;;;;;;;-12.13;59.62;98504.55;1819047;79;23818;-52
2021/01/16 09:16:37;;;;;;;26.83;10.60;;;;;;;-12.00;59.52;98518.75;1776284;80;21319;-56
2021/01/16 09:19:06;;;;;;;28.77;11.67;;;;;;;-11.80;59.39;98516.02;1764800;80;21201;-52
2021/01/16 09:21:36;;;;;;;28.00;10.73;;;;;;;-11.68;58.72;98505.23;1693638;84;21801;-56
2021/01/16 09:24:23;;;;;;;25.90;11.00;;;;;;;-11.56;58.91;98502.52;1694734;82;21621;-56
2021/01/16 09:26:55;;;;;;;26.57;11.23;;;;;;;-11.38;58.09;98508.38;1669419;84;21126;-56
2021/01/16 09:29:28;;;;;;;28.53;11.30;;;;;;;-11.39;57.80;98503.73;1723309;82;21217;-55
2021/01/16 09:32:01;;;;;;;26.23;11.20;;;;;;;-11.31;57.98;98504.15;1688791;82;21211;-56
2021/01/16 09:34:35;;;;;;;31.27;12.57;;;;;;;-11.11;57.89;98510.75;1724779;82;21164;-56
2021/01/16 09:37:05;;;;;;;26.60;11.63;;;;;;;-11.10;57.60;98502.21;1719519;82;21294;-53
2021/01/16 09:39:37;;;;;;;25.47;10.30;;;;;;;-11.06;56.97;98506.25;1715806;82;21179;-56
2021/01/16 09:42:21;;;;;;;24.37;10.03;;;;;;;-11.10;56.46;98506.48;1730773;80;21231;-56
2021/01/16 09:44:55;;;;;;;26.43;10.63;;;;;;;-11.19;56.01;98498.87;1719578;82;21259;-54
2021/01/16 09:47:31;;;;;;;24.43;10.13;;;;;;;-11.26;56.03;98497.10;1711090;83;21122;-60
2021/01/16 09:50:11;;;;;;;27.30;10.67;;;;;;;-11.34;55.93;98494.15;1728027;83;21121;-54
2021/01/16 09:52:46;;;;;;;24.90;10.68;;;;;;;-11.41;55.82;98504.70;1727618;83;21217;-58
2021/01/16 09:55:31;;;;;;;23.97;10.10;;;;;;;-11.40;55.93;98501.28;1674850;83;21674;-60
2021/01/16 09:57:59;;;;;;;24.23;9.93;;;;;;;-11.38;55.88;98500.74;1695654;84;21298;-55
2021/01/16 10:00:35;;;;;;;25.33;10.70;;;;;;;-11.47;55.38;98502.02;1699172;84;21323;-56
2021/01/16 10:03:09;;;;;;;24.67;9.67;;;;;;;-11.56;55.88;98493.16;1706862;83;21154;-59
2021/01/16 10:05:40;;;;;;;23.13;9.87;;;;;;;-11.46;56.24;98487.16;1682708;84;21359;-56
2021/01/16 10:08:10;;;;;;;24.37;9.43;;;;;;;-11.38;56.01;98486.30;1695900;84;21644;-56
2021/01/16 10:10:46;;;;;;;23.27;10.13;;;;;;;-11.34;55.58;98488.23;1705550;84;21219;-55
2021/01/16 10:13:32;;;;;;;25.33;10.27;;;;;;;-11.36;55.68;98490.02;1686396;84;21592;-52
2021/01/16 10:16:06;;;;;;;26.30;10.37;;;;;;;-11.34;55.76;98486.97;1674904;84;21159;-55
2021/01/16 10:18:35;;;;;;;30.07;12.27;;;;;;;-11.27;55.63;98478.92;1690777;85;21218;-52
2021/01/16 10:21:12;;;;;;;32.43;14.73;;;;;;;-11.21;55.73;98479.50;1677735;85;21737;-54
2021/01/16 10:23:43;;;;;;;36.17;14.20;;;;;;;-11.14;55.69;98483.36;1692630;85;21298;-50
2021/01/16 10:26:16;;;;;;;;;;;;;;;-11.14;55.05;98479.09;1695028;84;21108;-50
2021/01/16 10:28:54;;;;;;;27.27;11.13;;;;;;;-11.23;54.74;98471.14;1668838;85;20232;-54
2021/01/16 10:31:24;;;;;;;25.47;11.27;;;;;;;-11.35;54.60;98476.42;1675673;85;21170;-53
2021/01/16 10:34:05;;;;;;;29.00;11.53;;;;;;;-11.45;54.64;98478.62;1680422;85;21195;-55
2021/01/16 10:36:34;;;;;;;27.62;10.50;;;;;;;-11.50;55.12;98467.86;1672278;85;21130;-52
2021/01/16 10:39:12;;;;;;;26.90;11.53;;;;;;;-11.48;54.29;98474.13;1692082;85;21242;-53
2021/01/16 10:41:45;;;;;;;31.30;12.53;;;;;;;-11.71;53.66;98474.04;1681811;85;21162;-51
2021/01/16 10:44:15;;;;;;;25.40;10.80;;;;;;;-12.10;53.85;98467.54;1732124;81;21302;-51
2021/01/16 10:46:48;;;;;;;28.52;11.80;;;;;;;-12.38;54.59;98456.22;1721631;83;21154;-52
2021/01/16 10:49:28;;;;;;;29.53;13.13;;;;;;;-12.50;55.68;98463.16;1743531;82;21206;-52
2021/01/16 10:52:02;;;;;;;24.07;10.80;;;;;;;-12.45;55.97;98457.38;1745204;82;21209;-50
2021/01/16 10:54:32;;;;;;;25.20;10.83;;;;;;;-12.50;55.68;98459.35;1745240;82;21185;-51
2021/01/16 10:57:08;;;;;;;25.20;10.50;;;;;;;-12.63;56.15;98458.28;1745139;82;21194;-55
2021/01/16 10:59:40;;;;;;;24.47;11.40;;;;;;;-12.66;55.92;98466.05;1745138;82;21138;-53
2021/01/16 11:02:13;;;;;;;29.27;12.33;;;;;;;-12.82;56.08;98465.95;1741924;82;21291;-52
2021/01/16 11:04:44;;;;;;;29.30;12.63;;;;;;;-12.94;56.82;98467.79;1745110;82;21202;-54
2021/01/16 11:07:29;;;;;;;;;;;;;;;-12.87;57.47;98464.06;1747884;82;21708;-50
2021/01/16 11:10:06;;;;;;;27.60;9.87;;;;;;;-12.70;57.96;98461.56;1746610;82;20233;-51
2021/01/16 11:12:36;;;;;;;29.70;11.37;;;;;;;-12.46;57.74;98446.86;1717697;83;21178;-51
2021/01/16 11:15:26;;;;;;;27.03;10.90;;;;;;;-12.41;56.98;98447.45;1686180;85;21634;-51
2021/01/16 11:17:59;;;;;;;26.07;12.55;;;;;;;-12.42;56.38;98450.91;1735167;82;21320;-54
2021/01/16 11:20:32;;;;;;;26.43;11.10;;;;;;;-12.62;56.32;98448.48;1745334;82;21715;-49
2021/01/16 11:23:47;;;;;;;31.97;12.90;;;;;;;-12.74;57.03;98441.01;1745367;82;21202;-52
2021/01/16 11:26:17;;;;;;;29.37;12.50;;;;;;;-12.68;57.24;98437.36;1745119;82;21165;-51
2021/01/16 11:28:52;;;;;;;36.57;14.00;;;;;;;-12.57;57.23;98442.74;1745171;82;21344;-51
2021/01/16 11:31:34;;;;;;;30.77;11.53;;;;;;;-12.40;57.79;98445.73;1740252;81;21381;-53
2021/01/16 11:37:05;;;;;;;29.93;12.53;;;;;;;-11.93;57.04;98429.39;1767662;79;23581;-48
2021/01/16 11:39:50;;;;;;;30.77;12.13;;;;;;;-11.86;56.75;98437.55;1739597;82;21145;-50
2021/01/16 11:42:21;;;;;;;31.63;14.27;;;;;;;-11.70;56.86;98429.91;1741141;82;21157;-49
